createdAt,value
2022-11-17T00:07:39.687Z,93.96
2022-11-17T00:19:40.113Z,94.40
2022-11-17T00:31:40.606Z,94.57
2022-11-17T00:43:41.040Z,93.35
2022-11-17T00:55:41.542Z,94.33
2022-11-17T01:07:42.063Z,93.64
2022-11-17T01:19:42.407Z,93.55
2022-11-17T01:31:42.840Z,92.93
2022-11-17T01:43:43.319Z,94.17
2022-11-17T01:55:43.782Z,93.65
2022-11-17T02:07:44.180Z,94.91
2022-11-17T02:19:44.654Z,93.91
2022-11-17T02:31:45.126Z,94.64
2022-11-17T02:43:45.575Z,93.55
2022-11-17T02:55:45.981Z,93.56
2022-11-17T03:07:46.430Z,93.06
2022-11-17T03:19:46.923Z,94.08
2022-11-17T03:31:47.352Z,92.85
2022-11-17T03:43:47.812Z,92.46
2022-11-17T03:55:48.208Z,92.54
2022-11-17T04:07:48.734Z,91.55
2022-11-17T04:19:49.132Z,91.98
2022-11-17T04:31:49.632Z,91.86
2022-11-17T04:43:50.125Z,92.81
2022-11-17T04:55:50.649Z,94.68
2022-11-17T05:07:50.998Z,94.69
2022-11-17T05:19:51.423Z,93.37
2022-11-17T05:31:51.875Z,92.08
2022-11-17T05:43:52.332Z,93.05
2022-11-17T05:55:52.801Z,93.81
2022-11-17T06:07:53.277Z,94.00
2022-11-17T06:19:53.698Z,95.00
2022-11-17T06:31:54.130Z,94.64
2022-11-17T06:43:54.657Z,92.65
2022-11-17T06:55:55.032Z,95.18
2022-11-17T07:07:55.533Z,96.14
2022-11-17T07:31:56.523Z,96.35
2022-11-17T07:43:56.844Z,96.16
2022-11-17T07:55:57.347Z,96.46
2022-11-17T08:07:57.922Z,95.18
2022-11-17T08:19:58.210Z,93.85
2022-11-17T08:31:58.656Z,94.00
2022-11-17T08:43:59.194Z,93.20
2022-11-17T08:55:59.660Z,91.56
2022-11-17T09:08:16.352Z,91.29
2022-11-17T09:20:00.425Z,90.71
2022-11-17T09:32:00.934Z,89.04
2022-11-17T09:44:01.371Z,89.11
2022-11-17T09:56:01.794Z,87.08
2022-11-17T10:08:02.291Z,86.57
2022-11-17T10:20:02.724Z,85.34
2022-11-17T10:32:03.208Z,86.16
2022-11-17T10:44:03.613Z,86.46
2022-11-17T10:56:04.081Z,87.07
2022-11-17T11:08:04.529Z,85.40
2022-11-17T11:20:05.011Z,85.15
2022-11-17T11:32:05.455Z,85.78
2022-11-17T11:44:05.914Z,84.45
2022-11-17T11:56:06.361Z,85.04
2022-11-17T12:08:10.651Z,84.14
2022-11-17T12:20:10.847Z,86.38
2022-11-17T12:32:07.719Z,84.90
2022-11-17T12:44:08.160Z,86.17
2022-11-17T12:56:08.645Z,85.75
2022-11-17T13:08:09.091Z,87.01
2022-11-17T13:20:09.547Z,86.65
2022-11-17T13:32:09.979Z,87.51
2022-11-17T13:44:10.639Z,86.97
2022-11-17T13:56:10.892Z,87.92
2022-11-17T14:08:11.327Z,86.79
2022-11-17T14:20:11.788Z,86.57
2022-11-17T14:32:12.254Z,88.26
2022-11-17T14:44:12.668Z,86.31
2022-11-17T14:56:13.193Z,87.97
2022-11-17T15:08:13.623Z,87.59
2022-11-17T15:20:14.075Z,88.12
2022-11-17T15:32:14.484Z,88.22
2022-11-17T15:44:15.307Z,88.55
2022-11-17T15:56:15.405Z,88.12
2022-11-17T16:08:15.882Z,89.08
2022-11-17T16:20:16.323Z,88.85
2022-11-17T16:32:16.784Z,89.37
2022-11-17T16:44:17.256Z,90.81
2022-11-17T16:56:17.701Z,90.51
2022-11-17T17:08:18.093Z,91.00
2022-11-17T17:20:18.581Z,92.06
2022-11-17T17:32:19.035Z,91.85
2022-11-17T17:44:19.511Z,91.69
2022-11-17T17:56:19.933Z,93.13
2022-11-17T18:08:20.367Z,93.54
2022-11-17T18:20:20.799Z,93.68
2022-11-17T18:32:21.305Z,92.36
2022-11-17T18:44:21.891Z,93.69
2022-11-17T18:56:22.182Z,92.87
2022-11-17T19:08:22.666Z,93.06
2022-11-17T19:20:23.075Z,92.54
2022-11-17T19:32:23.543Z,91.70
2022-11-17T19:44:24.000Z,91.14
2022-11-17T19:56:24.481Z,91.59
2022-11-17T20:08:24.897Z,91.53
2022-11-17T20:20:25.324Z,91.54
2022-11-17T20:32:25.826Z,91.47
2022-11-17T20:44:26.284Z,93.52
2022-11-17T20:56:26.721Z,92.99
2022-11-17T21:08:27.181Z,94.83
2022-11-17T21:20:27.618Z,94.85
2022-11-17T21:32:28.083Z,95.32
2022-11-17T21:44:28.556Z,94.82
2022-11-17T21:56:28.962Z,95.45
2022-11-17T22:08:29.451Z,95.00
2022-11-17T22:20:29.869Z,95.42
2022-11-17T22:32:30.375Z,95.83
2022-11-17T22:44:30.803Z,95.95
2022-11-17T22:56:31.239Z,93.94
2022-11-17T23:08:31.676Z,95.02
2022-11-17T23:20:32.164Z,93.39
2022-11-17T23:32:32.607Z,93.50
2022-11-17T23:44:33.061Z,93.71
2022-11-17T23:56:33.517Z,93.27
